Time;durP1;ratioP1;P1;durP2;ratioP2;P2;SDS_P1;SDS_P2;PMS_P1;PMS_P2;Temp;Humidity;BMP_temperature;BMP_pressure;BME280_temperature;BME280_humidity;BME280_pressure;Samples;Min_cycle;Max_cycle;Signal;HPM_P1;HPM_P2
2023/04/03 00:01:49;;;;;;;11.07;4.20;;;;;;;;;;5039753;28;20040;-78
2023/04/03 00:04:28;;;;;;;11.63;4.00;;;;;;;;;;4750921;28;8088738;-78
2023/04/03 00:06:53;;;;;;;7.65;3.42;;;;;;;;;;5040463;28;20171;-78
2023/04/03 00:09:18;;;;;;;6.80;3.60;;;;;;;;;;5043590;28;20060;-78
2023/04/03 00:11:57;;;;;;;14.40;3.70;;;;;;;;;;5039738;28;20029;-78
2023/04/03 00:14:22;;;;;;;8.13;3.72;;;;;;;;;;5033074;28;20084;-78
2023/04/03 00:16:47;;;;;;;15.85;4.25;;;;;;;;;;5035999;28;20053;-78
2023/04/03 00:19:26;;;;;;;;;;;;;;;;;;5045659;28;20108;-78
2023/04/03 00:21:53;;;;;;;;;;;;;;;;;;5032677;28;19967;-78
2023/04/03 00:24:19;;;;;;;8.10;3.88;;;;;;;;;;5042033;28;19931;-78
2023/04/03 00:26:58;;;;;;;10.02;3.25;;;;;;;;;;5039412;28;20472;-78
2023/04/03 00:29:23;;;;;;;13.00;3.40;;;;;;;;;;5031946;28;20091;-78
2023/04/03 00:31:48;;;;;;;12.15;4.13;;;;;;;;;;5030763;28;20045;-79
2023/04/03 00:34:27;;;;;;;14.15;3.85;;;;;;;;;;5031757;28;20033;-78
2023/04/03 00:36:52;;;;;;;16.00;3.53;;;;;;;;;;5047406;28;20435;-78
2023/04/03 00:39:17;;;;;;;8.48;3.92;;;;;;;;;;5033948;28;20030;-78
2023/04/03 00:41:56;;;;;;;7.18;3.00;;;;;;;;;;5032804;28;20040;-78
2023/04/03 00:44:41;;;;;;;7.13;3.17;;;;;;;;;;5043715;28;20068;-78
2023/04/03 00:47:23;;;;;;;6.85;3.20;;;;;;;;;;5038163;28;20500;-77
2023/04/03 00:49:49;;;;;;;7.28;2.38;;;;;;;;;;5033213;28;20041;-77
2023/04/03 00:52:30;;;;;;;8.77;3.00;;;;;;;;;;5032523;28;20465;-78
2023/04/03 00:54:58;;;;;;;7.18;2.83;;;;;;;;;;5043191;28;20101;-78
2023/04/03 00:57:37;;;;;;;7.68;3.13;;;;;;;;;;5040015;28;20025;-78
2023/04/03 01:00:09;;;;;;;7.38;3.05;;;;;;;;;;5041704;28;20051;-78
2023/04/03 01:02:48;;;;;;;5.45;2.88;;;;;;;;;;5044502;28;20033;-77
2023/04/03 01:05:15;;;;;;;11.93;3.28;;;;;;;;;;5038008;28;20098;-78
2023/04/03 01:07:40;;;;;;;11.18;3.97;;;;;;;;;;5050187;28;20111;-78
2023/04/03 01:10:21;;;;;;;10.02;3.65;;;;;;;;;;5042591;28;20159;-78
2023/04/03 01:12:49;;;;;;;7.13;2.92;;;;;;;;;;5040853;28;20038;-77
2023/04/03 01:15:34;;;;;;;6.65;2.60;;;;;;;;;;5045325;28;20469;-77
2023/04/03 01:18:00;;;;;;;6.10;2.92;;;;;;;;;;5040510;28;20037;-77
2023/04/03 01:20:39;;;;;;;10.05;2.85;;;;;;;;;;5037082;28;20040;-78
2023/04/03 01:23:10;;;;;;;7.55;2.70;;;;;;;;;;5040070;28;20069;-78
2023/04/03 01:25:52;;;;;;;9.48;2.92;;;;;;;;;;5034505;28;20025;-79
2023/04/03 01:28:26;;;;;;;4.82;2.25;;;;;;;;;;5035675;28;20492;-78
2023/04/03 01:31:05;;;;;;;5.15;2.47;;;;;;;;;;5035461;28;20040;-78
2023/04/03 01:33:30;;;;;;;11.10;2.95;;;;;;;;;;5044008;28;20041;-78
2023/04/03 01:35:56;;;;;;;8.45;3.67;;;;;;;;;;5041371;28;20052;-78
2023/04/03 01:38:35;;;;;;;10.93;2.83;;;;;;;;;;5037752;28;20091;-79
2023/04/03 01:41:00;;;;;;;6.10;2.83;;;;;;;;;;5038430;28;20091;-78
2023/04/03 01:43:26;;;;;;;18.63;3.30;;;;;;;;;;5035299;28;20416;-79
2023/04/03 01:46:05;;;;;;;12.77;2.70;;;;;;;;;;5039822;28;20365;-78
2023/04/03 01:48:30;;;;;;;11.35;2.65;;;;;;;;;;5032272;28;20091;-78
2023/04/03 01:50:55;;;;;;;10.20;3.28;;;;;;;;;;5033976;28;20029;-78
2023/04/03 01:53:34;;;;;;;8.85;3.08;;;;;;;;;;5033624;28;20064;-78
2023/04/03 01:55:59;;;;;;;8.90;3.05;;;;;;;;;;5031674;28;20095;-78
2023/04/03 01:58:25;;;;;;;4.95;2.80;;;;;;;;;;5038764;28;20033;-78
2023/04/03 02:01:04;;;;;;;7.40;2.83;;;;;;;;;;5018485;28;20112;-78
2023/04/03 02:03:30;;;;;;;6.47;3.03;;;;;;;;;;5042053;28;20551;-78
2023/04/03 02:05:56;;;;;;;14.68;2.92;;;;;;;;;;5033193;28;20408;-78
2023/04/03 02:08:35;;;;;;;5.85;2.88;;;;;;;;;;5040736;28;20029;-78
2023/04/03 02:11:00;;;;;;;7.13;2.50;;;;;;;;;;5042679;28;20044;-78
2023/04/03 02:13:26;;;;;;;6.70;2.50;;;;;;;;;;5033583;28;20025;-78
2023/04/03 02:16:05;;;;;;;5.68;2.60;;;;;;;;;;5034536;28;20033;-78
2023/04/03 02:18:30;;;;;;;8.95;2.47;;;;;;;;;;5037571;28;20056;-78
2023/04/03 02:20:55;;;;;;;6.28;2.10;;;;;;;;;;5034368;28;20033;-78
2023/04/03 02:23:35;;;;;;;7.70;2.25;;;;;;;;;;5037904;28;20172;-78
2023/04/03 02:26:10;;;;;;;11.38;2.33;;;;;;;;;;5038751;28;20037;-78
2023/04/03 02:28:49;;;;;;;14.10;2.08;;;;;;;;;;5032802;28;20079;-78
2023/04/03 02:31:14;;;;;;;3.60;2.15;;;;;;;;;;5041355;28;20048;-77
2023/04/03 02:33:40;;;;;;;6.82;3.03;;;;;;;;;;5039597;28;20030;-78
2023/04/03 02:36:19;;;;;;;6.28;1.75;;;;;;;;;;5039041;28;20484;-78
2023/04/03 02:38:45;;;;;;;12.25;3.13;;;;;;;;;;5018938;28;20164;-78
2023/04/03 02:41:11;;;;;;;10.38;2.05;;;;;;;;;;5034921;28;20049;-77
2023/04/03 02:43:50;;;;;;;7.28;3.05;;;;;;;;;;5038352;28;20487;-77
2023/04/03 02:46:15;;;;;;;6.13;2.75;;;;;;;;;;5030258;28;20167;-77
2023/04/03 02:48:40;;;;;;;5.60;2.15;;;;;;;;;;5036467;28;20105;-80
2023/04/03 02:51:19;;;;;;;10.90;3.17;;;;;;;;;;5044859;28;20045;-79
2023/04/03 02:53:44;;;;;;;8.13;2.80;;;;;;;;;;5042622;28;20183;-79
2023/04/03 02:56:10;;;;;;;7.55;2.90;;;;;;;;;;5040898;28;20107;-77
2023/04/03 02:58:49;;;;;;;10.50;3.35;;;;;;;;;;5036180;28;20042;-77
2023/04/03 03:01:14;;;;;;;8.82;2.40;;;;;;;;;;5035720;28;20037;-77
2023/04/03 03:03:40;;;;;;;6.85;2.88;;;;;;;;;;5046821;28;20473;-79
2023/04/03 03:06:21;;;;;;;10.00;2.45;;;;;;;;;;5036983;28;20049;-78
2023/04/03 03:08:46;;;;;;;10.13;2.50;;;;;;;;;;5026119;28;20040;-76
2023/04/03 03:11:12;;;;;;;2.92;1.92;;;;;;;;;;5037236;28;20362;-77
2023/04/03 03:13:51;;;;;;;10.20;2.65;;;;;;;;;;5043000;28;20029;-78
2023/04/03 03:16:16;;;;;;;14.10;2.63;;;;;;;;;;5037691;28;20378;-79
2023/04/03 03:18:41;;;;;;;16.23;2.80;;;;;;;;;;5038915;28;20036;-78
2023/04/03 03:21:20;;;;;;;9.30;2.63;;;;;;;;;;5034828;28;20041;-78
2023/04/03 03:23:45;;;;;;;9.95;2.95;;;;;;;;;;5040136;28;20068;-78
2023/04/03 03:26:11;;;;;;;9.50;3.30;;;;;;;;;;5039793;28;20461;-78
2023/04/03 03:28:50;;;;;;;6.43;3.08;;;;;;;;;;5038877;28;20099;-78
2023/04/03 03:31:15;;;;;;;7.43;2.63;;;;;;;;;;5036472;28;20082;-78
2023/04/03 03:33:40;;;;;;;11.05;3.58;;;;;;;;;;5043430;28;20032;-78
2023/04/03 03:36:20;;;;;;;7.60;2.67;;;;;;;;;;5046817;28;20055;-78
2023/04/03 03:38:45;;;;;;;9.57;2.45;;;;;;;;;;5044409;28;20065;-78
2023/04/03 03:41:10;;;;;;;10.85;2.65;;;;;;;;;;5038700;28;20068;-78
2023/04/03 03:43:49;;;;;;;8.52;3.03;;;;;;;;;;5043764;28;20048;-78
2023/04/03 03:46:14;;;;;;;8.02;2.53;;;;;;;;;;5043217;28;20043;-79
2023/04/03 03:48:40;;;;;;;8.35;2.30;;;;;;;;;;5038567;28;20474;-79
2023/04/03 03:51:19;;;;;;;8.73;2.53;;;;;;;;;;5040957;28;20489;-78
2023/04/03 03:53:44;;;;;;;4.88;1.92;;;;;;;;;;5034611;28;20095;-79
2023/04/03 03:56:09;;;;;;;9.32;1.80;;;;;;;;;;5041735;28;20025;-78
2023/04/03 03:58:49;;;;;;;7.75;2.30;;;;;;;;;;5035190;28;20037;-79
2023/04/03 04:01:15;;;;;;;3.78;2.10;;;;;;;;;;5036427;28;20116;-78
2023/04/03 04:03:40;;;;;;;6.40;2.20;;;;;;;;;;5038994;28;20491;-78
2023/04/03 04:06:19;;;;;;;4.00;2.15;;;;;;;;;;5037424;28;20050;-78
2023/04/03 04:08:44;;;;;;;7.30;2.55;;;;;;;;;;5037848;28;20116;-78
2023/04/03 04:11:10;;;;;;;17.00;2.25;;;;;;;;;;5037911;28;20100;-78
2023/04/03 04:13:49;;;;;;;3.95;1.90;;;;;;;;;;5041837;28;20037;-78
2023/04/03 04:16:14;;;;;;;2.53;1.52;;;;;;;;;;5038992;28;20135;-78
2023/04/03 04:18:39;;;;;;;7.78;1.63;;;;;;;;;;5039848;28;20072;-78
2023/04/03 04:21:18;;;;;;;5.75;2.22;;;;;;;;;;5037834;28;20132;-77
2023/04/03 04:23:43;;;;;;;4.20;2.03;;;;;;;;;;5043123;28;20432;-77
2023/04/03 04:26:08;;;;;;;8.85;2.00;;;;;;;;;;5041147;28;20033;-78
2023/04/03 04:28:47;;;;;;;4.93;2.15;;;;;;;;;;5038819;28;20092;-77
2023/04/03 04:31:12;;;;;;;3.20;1.73;;;;;;;;;;5032086;28;20497;-77
2023/04/03 04:33:37;;;;;;;4.22;2.10;;;;;;;;;;5046054;28;20083;-77
2023/04/03 04:36:16;;;;;;;9.63;1.77;;;;;;;;;;5033833;28;20104;-78
2023/04/03 04:38:41;;;;;;;4.32;1.90;;;;;;;;;;5052045;28;20123;-78
2023/04/03 04:41:07;;;;;;;11.15;2.05;;;;;;;;;;5038889;28;20115;-77
2023/04/03 04:43:46;;;;;;;5.70;2.20;;;;;;;;;;5041222;28;20103;-77
2023/04/03 04:46:11;;;;;;;5.37;1.67;;;;;;;;;;5035142;28;20720;-78
2023/04/03 04:48:37;;;;;;;11.77;2.28;;;;;;;;;;5045652;28;20067;-77
2023/04/03 04:51:17;;;;;;;4.25;1.70;;;;;;;;;;5049976;28;20041;-78
2023/04/03 04:53:42;;;;;;;6.82;1.60;;;;;;;;;;5048015;28;20041;-78
2023/04/03 04:56:08;;;;;;;2.83;1.40;;;;;;;;;;5045042;28;20029;-77
2023/04/03 04:58:47;;;;;;;6.53;2.03;;;;;;;;;;5037369;28;20124;-78
2023/04/03 05:01:12;;;;;;;6.03;1.73;;;;;;;;;;5033253;28;20048;-77
2023/04/03 05:03:37;;;;;;;4.22;1.70;;;;;;;;;;5036667;28;20037;-78
2023/04/03 05:06:16;;;;;;;5.70;1.65;;;;;;;;;;5035958;28;20054;-78
2023/04/03 05:08:41;;;;;;;2.83;1.75;;;;;;;;;;5040896;28;20481;-78
2023/04/03 05:11:06;;;;;;;3.10;2.05;;;;;;;;;;5038386;28;20047;-77
2023/04/03 05:13:45;;;;;;;3.75;2.38;;;;;;;;;;5044642;28;20045;-77
2023/04/03 05:16:11;;;;;;;5.70;1.80;;;;;;;;;;5045556;28;20056;-77
2023/04/03 05:18:36;;;;;;;7.07;1.92;;;;;;;;;;5039060;28;20060;-78
2023/04/03 05:21:15;;;;;;;8.60;2.08;;;;;;;;;;5042053;28;20041;-77
2023/04/03 05:23:40;;;;;;;5.40;1.80;;;;;;;;;;5041467;28;20436;-77
2023/04/03 05:26:05;;;;;;;5.65;2.13;;;;;;;;;;5038633;28;20090;-77
2023/04/03 05:28:44;;;;;;;4.53;1.90;;;;;;;;;;5043396;28;20040;-77
2023/04/03 05:31:09;;;;;;;4.60;1.65;;;;;;;;;;5043055;28;20041;-76
2023/04/03 05:33:34;;;;;;;5.75;2.10;;;;;;;;;;5048578;28;20488;-77
2023/04/03 05:36:13;;;;;;;3.80;1.70;;;;;;;;;;5044277;28;20041;-77
2023/04/03 05:38:39;;;;;;;2.30;1.33;;;;;;;;;;5038780;28;20127;-78
2023/04/03 05:41:05;;;;;;;2.85;1.20;;;;;;;;;;5046599;28;20053;-77
2023/04/03 05:43:44;;;;;;;6.22;2.50;;;;;;;;;;5033364;28;20037;-79
2023/04/03 05:46:11;;;;;;;5.25;2.28;;;;;;;;;;5042230;28;20060;-77
2023/04/03 05:48:51;;;;;;;3.75;2.05;;;;;;;;;;5035456;28;20116;-77
2023/04/03 05:51:25;;;;;;;11.65;2.28;;;;;;;;;;5044814;28;20043;-77
2023/04/03 05:54:40;;;;;;;9.93;2.00;;;;;;;;;;5041964;28;20040;-77
2023/04/03 05:57:05;;;;;;;8.68;1.35;;;;;;;;;;5014672;28;20507;-76
2023/04/03 05:59:37;;;;;;;4.15;1.70;;;;;;;;;;5044414;28;20796;-77
2023/04/03 06:02:09;;;;;;;8.77;2.05;;;;;;;;;;5043425;28;20052;-77
2023/04/03 06:04:34;;;;;;;2.72;1.67;;;;;;;;;;5037153;28;20153;-77
2023/04/03 06:07:07;;;;;;;2.95;1.60;;;;;;;;;;5047032;28;20096;-77
2023/04/03 06:09:39;;;;;;;4.10;1.67;;;;;;;;;;5041825;28;20481;-77
2023/04/03 06:12:04;;;;;;;3.22;1.75;;;;;;;;;;5039955;28;20055;-76
2023/04/03 06:14:36;;;;;;;6.85;2.47;;;;;;;;;;5035323;28;20029;-77
2023/04/03 06:17:09;;;;;;;7.50;1.88;;;;;;;;;;5039436;28;20053;-77
2023/04/03 06:19:35;;;;;;;5.47;1.67;;;;;;;;;;5038659;28;20121;-76
2023/04/03 06:22:07;;;;;;;5.70;1.50;;;;;;;;;;5039539;28;20033;-77
2023/04/03 06:24:40;;;;;;;3.20;1.50;;;;;;;;;;5039634;28;20793;-77
2023/04/03 06:27:05;;;;;;;;;;;;;;;;;;5040567;28;19917;-78
2023/04/03 06:29:37;;;;;;;6.97;1.75;;;;;;;;;;5043062;28;20030;-79
2023/04/03 06:32:09;;;;;;;68.68;4.72;;;;;;;;;;5040088;28;20144;-78
2023/04/03 06:34:35;;;;;;;352.73;17.67;;;;;;;;;;5037354;28;20048;-78
2023/04/03 06:37:30;;;;;;;327.25;17.25;;;;;;;;;;5037673;28;20029;-78
2023/04/03 06:39:55;;;;;;;1986.40;97.28;;;;;;;;;;5038263;28;20041;-78
2023/04/03 06:42:27;;;;;;;993.50;48.80;;;;;;;;;;5033340;28;20029;-79
2023/04/03 06:44:59;;;;;;;1647.80;70.43;;;;;;;;;;5027479;28;20086;-79
2023/04/03 06:47:24;;;;;;;;;;;;;;;;;;5026659;28;20041;-79
2023/04/03 06:49:56;;;;;;;1999.90;120.15;;;;;;;;;;5042951;28;19916;-79
2023/04/03 06:52:28;;;;;;;1740.28;79.07;;;;;;;;;;5042468;28;20093;-79
2023/04/03 06:54:56;;;;;;;615.97;31.17;;;;;;;;;;5039101;28;20068;-79
2023/04/03 06:57:36;;;;;;;1999.90;105.95;;;;;;;;;;5035290;28;20036;-80
2023/04/03 07:00:03;;;;;;;1228.25;56.40;;;;;;;;;;5029740;28;20379;-79
2023/04/03 07:02:28;;;;;;;1246.65;52.45;;;;;;;;;;5048844;28;20571;-79
2023/04/03 07:05:07;;;;;;;1053.18;55.83;;;;;;;;;;5034726;28;20053;-80
2023/04/03 07:07:33;;;;;;;907.75;46.47;;;;;;;;;;5038157;28;20044;-79
2023/04/03 07:09:59;;;;;;;142.77;8.30;;;;;;;;;;5038860;28;20623;-79
2023/04/03 07:12:38;;;;;;;564.22;28.67;;;;;;;;;;5040508;28;20125;-80
2023/04/03 07:15:05;;;;;;;107.43;6.30;;;;;;;;;;5039136;28;20171;-79
2023/04/03 07:17:31;;;;;;;4.30;1.45;;;;;;;;;;5035927;28;20465;-79
2023/04/03 07:20:10;;;;;;;5.60;1.88;;;;;;;;;;5033904;28;20039;-79
2023/04/03 07:22:36;;;;;;;5.65;1.75;;;;;;;;;;5041899;28;20051;-79
2023/04/03 07:25:02;;;;;;;5.55;2.03;;;;;;;;;;5045278;28;20036;-80
2023/04/03 07:27:41;;;;;;;4.70;1.60;;;;;;;;;;5040955;28;20512;-79
2023/04/03 07:30:07;;;;;;;3.50;1.50;;;;;;;;;;5038878;28;20041;-79
2023/04/03 07:32:33;;;;;;;4.93;1.85;;;;;;;;;;5048887;28;20044;-79
2023/04/03 07:35:12;;;;;;;9.65;1.80;;;;;;;;;;5044893;28;20033;-79
2023/04/03 07:37:37;;;;;;;5.28;2.13;;;;;;;;;;5034689;28;20039;-79
2023/04/03 07:40:04;;;;;;;6.25;2.22;;;;;;;;;;5034394;28;20037;-80
2023/04/03 07:42:43;;;;;;;5.80;2.88;;;;;;;;;;5036537;28;20041;-79
2023/04/03 07:45:09;;;;;;;7.47;2.40;;;;;;;;;;5036905;28;20488;-80
2023/04/03 07:47:34;;;;;;;7.95;2.15;;;;;;;;;;5036136;28;20032;-80
2023/04/03 07:50:14;;;;;;;6.60;1.48;;;;;;;;;;5028785;28;20480;-81
2023/04/03 07:52:40;;;;;;;5.88;1.98;;;;;;;;;;5040528;28;20435;-81
2023/04/03 07:55:06;;;;;;;3.78;1.75;;;;;;;;;;5037463;28;20041;-79
2023/04/03 07:57:45;;;;;;;4.72;2.28;;;;;;;;;;5029637;28;20033;-82
2023/04/03 08:00:12;;;;;;;8.43;2.08;;;;;;;;;;5029561;28;20500;-81
2023/04/03 08:02:37;;;;;;;4.47;1.30;;;;;;;;;;5033788;28;20112;-81
2023/04/03 08:05:16;;;;;;;5.93;1.60;;;;;;;;;;5032333;28;20538;-81
2023/04/03 08:07:41;;;;;;;4.05;1.40;;;;;;;;;;5041965;28;20491;-79
2023/04/03 08:10:07;;;;;;;7.68;1.80;;;;;;;;;;5037034;28;20068;-81
2023/04/03 08:12:46;;;;;;;8.00;2.03;;;;;;;;;;5038113;28;20413;-81
2023/04/03 08:15:11;;;;;;;6.45;1.65;;;;;;;;;;5045474;28;20041;-81
2023/04/03 08:17:36;;;;;;;11.65;2.58;;;;;;;;;;5037727;28;20359;-82
2023/04/03 08:20:17;;;;;;;4.57;1.30;;;;;;;;;;5043866;28;20048;-82
2023/04/03 08:22:42;;;;;;;8.10;1.92;;;;;;;;;;5036747;28;20049;-82
2023/04/03 08:25:15;;;;;;;12.27;1.70;;;;;;;;;;5042794;28;20051;-82
2023/04/03 08:27:47;;;;;;;13.25;2.03;;;;;;;;;;5033148;28;20052;-81
2023/04/03 08:30:13;;;;;;;10.70;1.75;;;;;;;;;;5049366;28;20091;-82
2023/04/03 08:32:45;;;;;;;5.97;1.73;;;;;;;;;;5027779;28;20041;-82
2023/04/03 08:35:19;;;;;;;6.68;1.75;;;;;;;;;;5035357;28;20044;-81
2023/04/03 08:37:45;;;;;;;8.23;1.77;;;;;;;;;;5037040;28;20028;-83
2023/04/03 08:40:17;;;;;;;6.07;1.48;;;;;;;;;;5033483;28;20053;-81
2023/04/03 08:42:58;;;;;;;9.77;2.00;;;;;;;;;;5032006;28;20046;-82
2023/04/03 08:45:45;;;;;;;6.65;1.73;;;;;;;;;;5042031;28;20107;-82
2023/04/03 08:48:23;;;;;;;7.72;1.88;;;;;;;;;;5040979;28;20029;-82
2023/04/03 08:50:58;;;;;;;8.55;1.90;;;;;;;;;;5046401;28;20105;-82
2023/04/03 08:53:34;;;;;;;8.30;1.60;;;;;;;;;;5044674;28;20481;-82
2023/04/03 08:56:08;;;;;;;8.55;1.75;;;;;;;;;;5047770;28;20037;-82
2023/04/03 08:58:57;;;;;;;10.77;1.83;;;;;;;;;;5028107;28;20121;-82
2023/04/03 09:01:30;;;;;;;8.13;1.80;;;;;;;;;;5032953;28;20064;-83
2023/04/03 09:03:56;;;;;;;11.13;2.22;;;;;;;;;;5041407;28;20576;-83
2023/04/03 09:06:32;;;;;;;5.40;1.60;;;;;;;;;;5045914;28;20083;-83
2023/04/03 09:09:16;;;;;;;6.90;1.70;;;;;;;;;;5044200;28;20041;-82
2023/04/03 09:12:00;;;;;;;6.88;1.60;;;;;;;;;;5038438;28;20064;-83
2023/04/03 09:14:38;;;;;;;6.60;1.45;;;;;;;;;;5038206;28;20052;-82
2023/04/03 09:17:17;;;;;;;6.68;1.48;;;;;;;;;;5037604;28;20667;-79
2023/04/03 09:20:07;;;;;;;8.35;1.42;;;;;;;;;;5035722;28;20477;-83
2023/04/03 09:22:40;;;;;;;9.55;1.90;;;;;;;;;;5025848;28;20117;-81
2023/04/03 09:25:20;;;;;;;10.47;1.87;;;;;;;;;;5035243;28;20088;-81
2023/04/03 09:27:52;;;;;;;5.15;1.67;;;;;;;;;;5036902;28;20286;-82
2023/04/03 09:30:25;;;;;;;11.27;1.92;;;;;;;;;;5031263;28;20041;-81
2023/04/03 09:32:52;;;;;;;;;;;;;;;;;;5038842;28;20135;-82
2023/04/03 09:35:28;;;;;;;10.88;1.98;;;;;;;;;;5033915;28;19958;-82
2023/04/03 09:38:09;;;;;;;8.20;1.90;;;;;;;;;;5042780;28;20049;-81
2023/04/03 09:40:51;;;;;;;9.25;2.00;;;;;;;;;;5045114;28;20059;-82
2023/04/03 09:43:29;;;;;;;10.55;2.13;;;;;;;;;;5040916;28;20045;-82
2023/04/03 09:46:02;;;;;;;9.02;2.15;;;;;;;;;;5030408;28;20036;-82
2023/04/03 09:48:34;;;;;;;9.50;2.28;;;;;;;;;;5040050;28;20049;-82
2023/04/03 09:51:02;;;;;;;6.50;1.80;;;;;;;;;;5045220;28;20049;-82
2023/04/03 09:53:50;;;;;;;8.75;1.95;;;;;;;;;;5037637;28;20094;-82
2023/04/03 09:56:16;;;;;;;7.00;1.60;;;;;;;;;;5035302;28;20044;-79
2023/04/03 09:59:16;;;;;;;7.45;1.80;;;;;;;;;;5038495;28;20033;-84
2023/04/03 10:01:44;;;;;;;9.68;1.60;;;;;;;;;;5035736;28;20038;-85
2023/04/03 10:04:25;;;;;;;4.50;1.67;;;;;;;;;;5035352;28;20045;-84
2023/04/03 10:06:55;;;;;;;13.35;3.05;;;;;;;;;;5022641;28;20088;-83
2023/04/03 10:09:42;;;;;;;8.52;1.83;;;;;;;;;;5037176;28;20040;-84
2023/04/03 10:12:12;;;;;;;7.60;1.90;;;;;;;;;;5032549;28;20478;-83
2023/04/03 10:15:07;;;;;;;8.40;1.83;;;;;;;;;;5028205;28;20440;-83
2023/04/03 10:17:48;;;;;;;10.60;2.50;;;;;;;;;;5033452;28;20948;-82
2023/04/03 10:20:38;;;;;;;10.52;2.10;;;;;;;;;;5036521;28;20040;-83
2023/04/03 10:23:19;;;;;;;3.88;1.50;;;;;;;;;;5035756;28;20160;-82
2023/04/03 10:26:04;;;;;;;8.27;1.73;;;;;;;;;;5032228;28;20028;-83
2023/04/03 10:28:44;;;;;;;7.40;1.90;;;;;;;;;;5036925;28;20048;-82
2023/04/03 10:31:29;;;;;;;7.25;2.00;;;;;;;;;;5043257;28;20032;-82
2023/04/03 10:33:58;;;;;;;6.22;1.70;;;;;;;;;;5038781;28;20124;-81
2023/04/03 10:36:43;;;;;;;4.78;1.65;;;;;;;;;;5037975;28;20031;-81
2023/04/03 10:39:31;;;;;;;10.00;2.22;;;;;;;;;;5028973;28;20393;-81
2023/04/03 10:42:20;;;;;;;6.68;1.85;;;;;;;;;;5027143;28;20064;-81
2023/04/03 10:45:10;;;;;;;9.52;1.73;;;;;;;;;;5022430;28;20090;-78
2023/04/03 10:48:14;;;;;;;5.57;1.88;;;;;;;;;;5028034;28;20037;-80
2023/04/03 10:50:58;;;;;;;7.82;1.92;;;;;;;;;;5020712;28;20116;-80
2023/04/03 10:53:44;;;;;;;7.30;2.00;;;;;;;;;;5029305;28;20052;-80
2023/04/03 10:56:37;;;;;;;6.55;1.63;;;;;;;;;;5035844;28;20443;-80
2023/04/03 10:59:45;;;;;;;3.92;1.75;;;;;;;;;;5034371;28;20044;-80
2023/04/03 11:02:43;;;;;;;7.65;1.80;;;;;;;;;;5032005;28;20076;-80
2023/04/03 11:05:36;;;;;;;6.13;1.80;;;;;;;;;;5016562;28;20370;-80
2023/04/03 11:08:05;;;;;;;6.68;1.75;;;;;;;;;;5045687;28;20037;-80
2023/04/03 11:10:49;;;;;;;6.40;1.83;;;;;;;;;;5026467;28;20132;-79
2023/04/03 11:13:23;;;;;;;8.25;2.17;;;;;;;;;;5036065;28;20175;-80
2023/04/03 11:16:03;;;;;;;5.50;1.73;;;;;;;;;;5029236;28;20061;-81
2023/04/03 11:19:13;;;;;;;7.43;2.08;;;;;;;;;;5035524;28;20033;-79
2023/04/03 11:22:01;;;;;;;6.28;1.63;;;;;;;;;;5020592;28;20037;-80
2023/04/03 11:24:29;;;;;;;5.47;2.00;;;;;;;;;;5029061;28;20499;-80
2023/04/03 11:27:09;;;;;;;6.32;2.15;;;;;;;;;;5038231;28;20384;-80
2023/04/03 11:29:38;;;;;;;6.80;2.88;;;;;;;;;;5041242;28;20037;-80
2023/04/03 11:32:35;;;;;;;6.05;2.35;;;;;;;;;;5038817;28;20038;-80
2023/04/03 11:35:02;;;;;;;3.13;1.48;;;;;;;;;;5029954;28;20141;-80
2023/04/03 11:37:45;;;;;;;9.35;2.22;;;;;;;;;;5036039;28;20102;-80
2023/04/03 11:40:17;;;;;;;7.45;2.45;;;;;;;;;;5028240;28;20041;-79
2023/04/03 11:42:59;;;;;;;6.47;1.83;;;;;;;;;;5031014;28;20041;-80
2023/04/03 11:45:24;;;;;;;6.00;1.70;;;;;;;;;;5024354;28;20393;-80
2023/04/03 11:48:09;;;;;;;5.60;2.25;;;;;;;;;;5040622;28;20043;-80
2023/04/03 11:50:34;;;;;;;4.03;1.48;;;;;;;;;;5029682;28;20104;-80
2023/04/03 11:53:06;;;;;;;5.20;1.70;;;;;;;;;;5030584;28;20115;-79
2023/04/03 11:55:39;;;;;;;5.63;1.92;;;;;;;;;;5034798;28;20051;-79
2023/04/03 11:58:19;;;;;;;10.65;2.55;;;;;;;;;;5009068;28;20044;-78
2023/04/03 12:00:51;;;;;;;10.27;2.17;;;;;;;;;;5013152;28;20048;-80
2023/04/03 12:03:42;;;;;;;8.57;1.90;;;;;;;;;;5013902;28;20068;-79
2023/04/03 12:06:14;;;;;;;6.63;2.30;;;;;;;;;;5008426;28;20083;-79
2023/04/03 12:08:47;;;;;;;6.70;2.05;;;;;;;;;;5010957;28;20080;-79
2023/04/03 12:11:12;;;;;;;6.63;1.95;;;;;;;;;;4999001;28;20443;-78
2023/04/03 12:14:10;;;;;;;6.60;1.63;;;;;;;;;;5007063;28;20036;-79
2023/04/03 12:16:38;;;;;;;4.70;1.67;;;;;;;;;;5024078;28;20103;-78
2023/04/03 12:19:20;;;;;;;5.40;1.83;;;;;;;;;;5031241;28;20102;-78
2023/04/03 12:21:46;;;;;;;6.00;1.60;;;;;;;;;;5029232;28;20082;-78
2023/04/03 12:24:28;;;;;;;6.40;1.70;;;;;;;;;;5032694;28;20032;-81
2023/04/03 12:26:56;;;;;;;5.60;1.77;;;;;;;;;;5008323;28;20549;-78
2023/04/03 12:29:41;;;;;;;6.68;1.88;;;;;;;;;;5008025;28;20076;-78
2023/04/03 12:32:28;;;;;;;4.93;1.80;;;;;;;;;;5012998;28;20041;-78
2023/04/03 12:35:36;;;;;;;4.95;1.67;;;;;;;;;;4998727;28;20076;-78
2023/04/03 12:38:39;;;;;;;5.55;1.40;;;;;;;;;;5028075;28;20393;-81
2023/04/03 12:41:30;;;;;;;13.30;2.28;;;;;;;;;;5019532;28;20470;-81
2023/04/03 12:44:28;;;;;;;5.72;1.67;;;;;;;;;;5039773;28;20064;-79
2023/04/03 12:47:08;;;;;;;10.23;1.98;;;;;;;;;;5039709;28;20041;-81
2023/04/03 12:49:42;;;;;;;4.28;1.98;;;;;;;;;;5032246;28;20050;-81
2023/04/03 12:53:06;;;;;;;4.25;2.08;;;;;;;;;;5031151;28;20061;-81
2023/04/03 12:55:32;;;;;;;5.72;1.75;;;;;;;;;;5018962;28;20099;-80
2023/04/03 12:58:33;;;;;;;4.25;1.70;;;;;;;;;;5003404;28;20049;-79
2023/04/03 13:01:28;;;;;;;6.88;1.73;;;;;;;;;;5015190;28;20052;-81
2023/04/03 13:04:07;;;;;;;6.00;2.03;;;;;;;;;;5038997;28;20029;-81
2023/04/03 13:06:39;;;;;;;5.10;1.70;;;;;;;;;;5033593;28;20122;-80
2023/04/03 13:09:38;;;;;;;4.82;1.98;;;;;;;;;;5042563;28;20040;-80
2023/04/03 13:12:11;;;;;;;3.05;1.63;;;;;;;;;;5033219;28;20119;-81
2023/04/03 13:15:02;;;;;;;5.43;1.77;;;;;;;;;;5022254;28;20041;-81
2023/04/03 13:17:28;;;;;;;6.97;1.80;;;;;;;;;;5040973;28;20041;-81
2023/04/03 13:20:19;;;;;;;7.40;2.17;;;;;;;;;;5038427;28;20036;-80
2023/04/03 13:23:06;;;;;;;6.25;2.10;;;;;;;;;;5038539;28;20120;-81
2023/04/03 13:25:49;;;;;;;6.15;1.65;;;;;;;;;;5039723;28;20035;-81
2023/04/03 13:28:18;;;;;;;6.97;2.25;;;;;;;;;;5045336;28;20099;-81
2023/04/03 13:31:13;;;;;;;7.18;1.90;;;;;;;;;;5042363;28;20029;-80
2023/04/03 13:33:45;;;;;;;10.85;1.80;;;;;;;;;;5046381;28;20149;-80
2023/04/03 13:36:27;;;;;;;9.43;2.25;;;;;;;;;;5036622;28;20036;-80
2023/04/03 13:39:24;;;;;;;6.38;1.35;;;;;;;;;;5033000;28;20152;-80
2023/04/03 13:42:27;;;;;;;3.92;1.55;;;;;;;;;;5038214;28;20040;-80
2023/04/03 13:45:14;;;;;;;9.50;2.67;;;;;;;;;;5028008;28;20235;-81
2023/04/03 13:47:54;;;;;;;6.78;1.83;;;;;;;;;;5036551;28;20104;-80
2023/04/03 13:50:25;;;;;;;11.77;2.25;;;;;;;;;;5032119;28;20041;-81
2023/04/03 13:53:10;;;;;;;7.55;2.33;;;;;;;;;;5032119;28;20026;-81
2023/04/03 13:55:39;;;;;;;9.40;2.05;;;;;;;;;;5037987;28;20128;-81
2023/04/03 13:58:18;;;;;;;5.72;2.05;;;;;;;;;;5036687;28;20477;-81
2023/04/03 14:01:01;;;;;;;8.02;2.13;;;;;;;;;;5032791;28;20075;-81
2023/04/03 14:03:50;;;;;;;10.88;2.40;;;;;;;;;;5037901;28;20040;-81
2023/04/03 14:06:16;;;;;;;5.85;1.80;;;;;;;;;;5040734;28;20057;-80
2023/04/03 14:08:48;;;;;;;6.95;2.42;;;;;;;;;;5033403;28;21024;-80
2023/04/03 14:11:34;;;;;;;11.65;2.60;;;;;;;;;;5028260;28;20048;-81
2023/04/03 14:14:14;;;;;;;9.85;2.88;;;;;;;;;;5043013;28;20037;-81
2023/04/03 14:16:49;;;;;;;6.32;2.10;;;;;;;;;;5041673;28;20045;-80
2023/04/03 14:19:27;;;;;;;7.28;2.05;;;;;;;;;;5040344;28;20041;-81
2023/04/03 14:22:01;;;;;;;7.07;2.78;;;;;;;;;;5033137;28;20103;-80
2023/04/03 14:24:34;;;;;;;7.05;2.58;;;;;;;;;;5045098;28;20048;-80
2023/04/03 14:27:00;;;;;;;7.93;1.73;;;;;;;;;;5037653;28;20099;-80
2023/04/03 14:29:32;;;;;;;7.47;2.35;;;;;;;;;;5036075;28;20041;-80
2023/04/03 14:32:04;;;;;;;5.95;2.25;;;;;;;;;;5034539;28;20055;-79
2023/04/03 14:34:30;;;;;;;5.35;2.17;;;;;;;;;;5037322;28;20041;-80
2023/04/03 14:37:02;;;;;;;7.78;2.00;;;;;;;;;;5045052;28;20071;-81
2023/04/03 14:39:34;;;;;;;5.18;2.13;;;;;;;;;;5016852;28;20036;-81
2023/04/03 14:41:59;;;;;;;9.18;1.80;;;;;;;;;;5036063;28;20056;-81
2023/04/03 14:44:32;;;;;;;7.72;2.20;;;;;;;;;;5037800;28;20017;-80
2023/04/03 14:47:04;;;;;;;7.53;2.38;;;;;;;;;;5041443;28;20056;-81
2023/04/03 14:49:30;;;;;;;8.35;2.00;;;;;;;;;;5027889;28;20055;-80
2023/04/03 14:52:03;;;;;;;6.65;1.48;;;;;;;;;;5034336;28;20033;-81
2023/04/03 14:54:35;;;;;;;8.55;2.30;;;;;;;;;;5046129;28;20133;-81
2023/04/03 14:57:01;;;;;;;10.57;2.30;;;;;;;;;;5032060;28;20037;-81
2023/04/03 14:59:34;;;;;;;8.25;2.10;;;;;;;;;;5030011;28;20104;-81
2023/04/03 15:02:29;;;;;;;8.75;2.15;;;;;;;;;;5040208;28;20091;-80
2023/04/03 15:05:03;;;;;;;4.78;1.90;;;;;;;;;;5028148;28;20385;-80
2023/04/03 15:07:38;;;;;;;7.65;2.53;;;;;;;;;;5034386;28;20137;-81
2023/04/03 15:10:23;;;;;;;6.53;2.05;;;;;;;;;;5032176;28;20045;-81
2023/04/03 15:12:55;;;;;;;6.38;2.30;;;;;;;;;;5031205;28;20034;-80
2023/04/03 15:15:22;;;;;;;7.30;2.58;;;;;;;;;;5038465;28;20037;-80
2023/04/03 15:17:58;;;;;;;6.63;2.00;;;;;;;;;;5031948;28;20393;-81
2023/04/03 15:20:32;;;;;;;4.07;1.73;;;;;;;;;;5026713;28;20029;-81
2023/04/03 15:23:05;;;;;;;11.88;2.13;;;;;;;;;;5040314;28;20076;-80
2023/04/03 15:25:37;;;;;;;7.40;2.37;;;;;;;;;;5034433;28;20512;-80